Time;durP1;ratioP1;P1;durP2;ratioP2;P2;SDS_P1;SDS_P2;PMS_P1;PMS_P2;Temp;Humidity;BMP_temperature;BMP_pressure;BME280_temperature;BME280_humidity;BME280_pressure;Samples;Min_cycle;Max_cycle;Signal;HPM_P1;HPM_P2
2021/06/14 00:04:16;;;;;;;2.93;2.73;;;18.40;64.40;;;;;;10540745;28;20258;-81
2021/06/14 00:09:22;;;;;;;3.17;2.80;;;18.30;65.40;;;;;;10542836;28;20655;-80
2021/06/14 00:14:24;;;;;;;3.57;3.30;;;18.30;65.20;;;;;;10541867;28;20707;-81
2021/06/14 00:19:28;;;;;;;3.40;3.10;;;18.30;65.60;;;;;;10532100;28;20196;-81
2021/06/14 00:24:30;;;;;;;4.03;3.23;;;18.30;64.20;;;;;;10549195;28;20219;-81
2021/06/14 00:29:32;;;;;;;4.00;3.10;;;18.20;64.90;;;;;;10549744;28;20251;-81
2021/06/14 00:34:36;;;;;;;4.30;3.40;;;18.10;66.40;;;;;;10531489;28;20227;-80
2021/06/14 00:39:38;;;;;;;3.30;3.10;;;18.10;67.30;;;;;;10525553;28;20298;-80
2021/06/14 00:44:41;;;;;;;4.97;3.57;;;18.10;65.40;;;;;;10525967;28;20285;-81
2021/06/14 00:49:44;;;;;;;3.50;3.10;;;18.10;65.60;;;;;;10526025;28;20622;-80
2021/06/14 00:54:47;;;;;;;3.23;3.00;;;18.00;66.50;;;;;;10543857;28;20215;-80
2021/06/14 00:59:51;;;;;;;3.23;2.93;;;18.00;66.50;;;;;;10523617;28;20226;-80
2021/06/14 01:04:59;;;;;;;3.70;3.50;;;18.00;67.30;;;;;;10541957;28;20233;-80
2021/06/14 01:10:03;;;;;;;3.83;3.53;;;17.90;65.40;;;;;;10537565;28;20295;-81
2021/06/14 01:15:14;;;;;;;3.73;3.40;;;17.90;65.30;;;;;;10525944;28;20316;-80
2021/06/14 01:20:51;;;;;;;5.10;4.17;;;17.80;65.70;;;;;;10526499;28;20690;-80
2021/06/14 01:25:57;;;;;;;4.33;3.87;;;17.80;66.10;;;;;;10544789;28;20208;-81
2021/06/14 01:31:03;;;;;;;3.70;3.40;;;17.70;65.70;;;;;;10546987;28;20662;-81
2021/06/14 01:36:09;;;;;;;3.40;3.10;;;17.70;66.60;;;;;;10525707;28;20667;-79
2021/06/14 01:41:17;;;;;;;4.10;3.70;;;17.60;68.10;;;;;;10521794;28;20720;-79
2021/06/14 01:46:24;;;;;;;4.10;3.80;;;17.60;66.60;;;;;;10540098;28;20581;-80
2021/06/14 01:51:32;;;;;;;3.63;3.30;;;17.50;68.00;;;;;;10540854;28;20628;-82
2021/06/14 01:56:41;;;;;;;3.83;3.53;;;17.50;67.80;;;;;;10541620;28;20257;-81
2021/06/14 02:01:50;;;;;;;7.20;4.20;;;17.50;69.30;;;;;;10540920;28;20695;-81
2021/06/14 02:06:55;;;;;;;3.70;3.40;;;17.50;68.30;;;;;;10523850;28;20207;-80
2021/06/14 02:12:05;;;;;;;3.23;3.03;;;17.40;69.70;;;;;;10536781;28;20736;-80
2021/06/14 02:17:14;;;;;;;4.30;4.00;;;17.40;68.80;;;;;;10541099;28;20196;-80
2021/06/14 02:22:19;;;;;;;4.20;3.80;;;17.40;68.60;;;;;;10541422;28;20646;-81
2021/06/14 02:27:23;;;;;;;5.97;4.30;;;17.40;69.20;;;;;;10540871;28;20273;-80
2021/06/14 02:32:28;;;;;;;3.97;3.60;;;17.30;68.70;;;;;;10543141;28;20597;-81
2021/06/14 02:37:31;;;;;;;5.03;3.60;;;17.20;69.70;;;;;;10541035;28;20606;-81
2021/06/14 02:42:34;;;;;;;5.60;3.80;;;17.20;70.30;;;;;;10524374;28;20223;-81
2021/06/14 02:47:39;;;;;;;3.57;3.37;;;17.20;70.60;;;;;;10541378;28;20199;-81
2021/06/14 02:52:43;;;;;;;4.30;3.90;;;17.20;70.00;;;;;;10523667;28;20289;-79
2021/06/14 02:57:50;;;;;;;3.63;3.30;;;17.20;69.70;;;;;;10541503;28;20218;-79
2021/06/14 03:02:56;;;;;;;3.43;3.20;;;17.10;71.10;;;;;;10525807;28;20315;-80
2021/06/14 03:08:01;;;;;;;4.37;3.97;;;17.00;71.30;;;;;;10536503;28;20199;-81
2021/06/14 03:13:05;;;;;;;4.60;4.20;;;17.00;70.10;;;;;;10540526;28;20718;-81
2021/06/14 03:18:12;;;;;;;4.23;3.90;;;17.00;70.70;;;;;;10544370;28;20207;-80
2021/06/14 03:23:16;;;;;;;4.47;3.93;;;16.90;70.40;;;;;;10544484;28;20310;-81
2021/06/14 03:28:20;;;;;;;4.30;4.00;;;16.90;70.70;;;;;;10543832;28;20208;-82
2021/06/14 03:33:25;;;;;;;4.37;3.97;;;16.80;71.40;;;;;;10544612;28;20249;-81
2021/06/14 03:38:27;;;;;;;4.23;3.93;;;16.80;71.70;;;;;;10543357;28;20204;-81
2021/06/14 03:43:29;;;;;;;4.60;4.07;;;16.70;70.90;;;;;;10538663;28;20246;-82
2021/06/14 03:48:32;;;;;;;4.20;3.90;;;16.70;72.90;;;;;;10535954;28;20286;-81
2021/06/14 03:53:35;;;;;;;3.90;3.57;;;16.70;72.30;;;;;;10538354;28;20239;-82
2021/06/14 03:58:38;;;;;;;4.17;3.83;;;16.70;72.30;;;;;;10539279;28;20253;-81
2021/06/14 04:03:43;;;;;;;4.10;3.70;;;16.70;71.50;;;;;;10541903;28;20686;-80
2021/06/14 04:08:45;;;;;;;4.37;4.07;;;16.70;73.20;;;;;;10539998;28;20697;-80
2021/06/14 04:13:49;;;;;;;4.57;4.03;;;16.70;71.40;;;;;;10539399;28;20265;-81
2021/06/14 04:18:52;;;;;;;4.23;3.80;;;16.70;73.60;;;;;;10535353;28;20196;-81
2021/06/14 04:23:54;;;;;;;4.30;3.97;;;16.70;72.40;;;;;;10523368;28;20816;-80
2021/06/14 04:28:56;;;;;;;5.43;4.17;;;16.70;74.00;;;;;;10533036;28;20610;-80
2021/06/14 04:34:00;;;;;;;4.97;4.57;;;16.70;73.60;;;;;;10534225;28;20220;-80
2021/06/14 04:39:03;;;;;;;4.03;3.73;;;16.70;74.60;;;;;;10525047;28;20611;-80
2021/06/14 04:44:06;;;;;;;5.10;4.70;;;16.70;75.50;;;;;;10477349;28;20740;-79
2021/06/14 04:49:09;;;;;;;4.90;4.30;;;16.70;75.20;;;;;;10508907;28;20213;-79
2021/06/14 04:54:11;;;;;;;5.20;4.80;;;16.70;77.70;;;;;;10512329;22;20252;-79
2021/06/14 04:59:13;;;;;;;4.87;4.57;;;16.80;76.20;;;;;;10482161;28;20217;-81
2021/06/14 05:04:17;;;;;;;7.80;4.77;;;16.90;75.70;;;;;;10472998;28;20599;-80
2021/06/14 05:09:19;;;;;;;5.37;4.83;;;16.90;77.80;;;;;;10467512;28;20624;-80
2021/06/14 05:14:46;;;;;;;;;;;;;;;;;;;;;
2021/06/14 05:19:50;;;;;;;6.07;4.80;;;17.00;76.60;;;;;;10498375;28;20196;-81
2021/06/14 05:24:52;;;;;;;6.73;5.07;;;17.10;77.20;;;;;;10487414;28;20216;-80
2021/06/14 05:29:55;;;;;;;7.63;5.00;;;17.10;77.80;;;;;;10509352;28;20221;-80
2021/06/14 05:34:59;;;;;;;5.23;4.83;;;17.20;76.80;;;;;;10500859;28;20245;-80
2021/06/14 05:40:01;;;;;;;4.20;3.77;;;17.30;76.20;;;;;;10492879;28;20293;-80
2021/06/14 05:45:05;;;;;;;5.30;3.80;;;17.40;73.30;;;;;;10503118;28;20232;-80
2021/06/14 05:50:10;;;;;;;4.53;4.10;;;17.60;72.10;;;;;;10491979;28;20224;-80
2021/06/14 05:55:13;;;;;;;4.83;4.43;;;17.70;74.10;;;;;;10502537;28;20250;-80
2021/06/14 06:00:15;;;;;;;5.00;4.50;;;17.80;73.10;;;;;;10493479;28;20659;-80
2021/06/14 06:05:19;;;;;;;4.23;3.90;;;17.90;71.00;;;;;;10480591;28;20476;-80
2021/06/14 06:10:22;;;;;;;5.17;4.67;;;18.00;71.50;;;;;;10497669;28;20229;-80
2021/06/14 06:15:24;;;;;;;3.50;3.30;;;18.20;68.90;;;;;;10503363;28;20696;-80
2021/06/14 06:20:27;;;;;;;5.23;4.10;;;18.30;70.00;;;;;;10498301;28;20200;-80
2021/06/14 06:25:29;;;;;;;4.30;3.90;;;18.40;70.60;;;;;;10504618;28;20217;-80
2021/06/14 06:30:36;;;;;;;4.00;3.63;;;18.50;68.60;;;;;;10498871;28;20214;-80
2021/06/14 06:35:39;;;;;;;4.13;3.83;;;18.70;66.90;;;;;;10491660;28;20213;-80
2021/06/14 06:40:42;;;;;;;4.87;3.87;;;18.80;66.40;;;;;;10487306;28;20197;-80
2021/06/14 06:45:45;;;;;;;4.17;3.77;;;19.10;65.20;;;;;;10499050;28;20230;-80
2021/06/14 06:50:48;;;;;;;6.27;4.37;;;19.40;66.70;;;;;;10500087;28;20793;-80
2021/06/14 06:55:51;;;;;;;5.73;3.90;;;19.80;66.50;;;;;;10499771;28;20197;-80
2021/06/14 07:00:54;;;;;;;4.20;3.57;;;20.20;66.70;;;;;;10476441;28;20197;-80
2021/06/14 07:05:58;;;;;;;4.90;4.07;;;20.50;64.30;;;;;;10492961;28;20250;-80
2021/06/14 07:11:00;;;;;;;4.73;4.00;;;20.90;63.50;;;;;;10489120;28;20720;-80
2021/06/14 07:16:02;;;;;;;6.47;3.90;;;21.20;61.10;;;;;;10500055;28;20204;-80
2021/06/14 07:21:06;;;;;;;3.80;3.50;;;21.60;62.30;;;;;;10491926;28;20657;-81
2021/06/14 07:26:09;;;;;;;4.53;4.17;;;22.00;60.50;;;;;;10496350;28;20226;-80
2021/06/14 07:31:11;;;;;;;3.90;3.50;;;22.60;58.60;;;;;;10495310;28;20579;-80
2021/06/14 07:36:15;;;;;;;3.90;3.53;;;23.30;57.90;;;;;;10490573;28;20228;-81
2021/06/14 07:41:18;;;;;;;6.00;3.60;;;23.90;58.00;;;;;;10487322;28;20227;-81
2021/06/14 07:46:20;;;;;;;5.07;3.40;;;24.50;56.60;;;;;;10491518;28;20741;-80
2021/06/14 07:51:23;;;;;;;3.53;3.20;;;25.00;55.00;;;;;;10505330;28;20270;-81
2021/06/14 07:56:26;;;;;;;5.17;3.60;;;25.50;54.70;;;;;;10500705;28;20204;-81
2021/06/14 08:01:28;;;;;;;3.40;3.10;;;26.10;53.80;;;;;;10505804;28;20216;-81
2021/06/14 08:06:31;;;;;;;3.80;3.00;;;26.40;52.00;;;;;;10517202;28;20250;-81
2021/06/14 08:11:36;;;;;;;5.73;3.43;;;26.70;51.30;;;;;;10475301;28;20605;-81
2021/06/14 08:16:42;;;;;;;4.70;3.07;;;27.20;51.90;;;;;;10485774;28;20246;-81
2021/06/14 08:22:03;;;;;;;7.30;4.00;;;27.70;51.00;;;;;;10490466;28;20295;-79
2021/06/14 08:27:05;;;;;;;3.90;3.10;;;28.20;50.60;;;;;;10476694;28;20204;-79
2021/06/14 08:32:08;;;;;;;3.70;3.20;;;28.60;49.50;;;;;;10493368;28;20228;-79
2021/06/14 08:37:12;;;;;;;3.90;3.50;;;29.00;48.60;;;;;;10484670;28;20224;-79
2021/06/14 08:42:14;;;;;;;3.10;2.80;;;29.20;46.70;;;;;;10489852;28;20216;-79
2021/06/14 08:47:16;;;;;;;4.30;4.00;;;29.50;45.10;;;;;;10486136;28;20686;-79
2021/06/14 08:52:20;;;;;;;4.83;3.70;;;29.50;44.10;;;;;;10486870;28;20307;-79
2021/06/14 08:57:25;;;;;;;4.00;3.10;;;29.60;44.30;;;;;;10467730;28;20676;-80
2021/06/14 09:02:28;;;;;;;2.90;2.63;;;29.80;44.50;;;;;;10470288;28;20218;-79
2021/06/14 09:07:31;;;;;;;4.57;3.40;;;29.90;42.60;;;;;;10461125;28;20192;-79
2021/06/14 09:12:40;;;;;;;3.20;3.00;;;30.20;43.80;;;;;;10482246;28;20233;-79
2021/06/14 09:17:51;;;;;;;3.40;2.93;;;30.50;42.40;;;;;;10472264;28;20811;-79
2021/06/14 09:22:56;;;;;;;4.17;3.43;;;30.90;42.70;;;;;;10490326;28;20217;-79
2021/06/14 09:28:09;;;;;;;2.93;2.73;;;31.10;42.80;;;;;;10508594;28;20204;-79
2021/06/14 09:33:23;;;;;;;4.50;3.50;;;31.40;42.30;;;;;;10498351;28;20308;-79
2021/06/14 09:38:27;;;;;;;4.50;2.93;;;32.00;39.80;;;;;;10484506;28;20204;-80
2021/06/14 09:43:32;;;;;;;3.30;3.07;;;32.70;41.00;;;;;;10502476;28;20263;-80
2021/06/14 09:48:36;;;;;;;3.50;3.00;;;33.90;39.60;;;;;;10510043;28;20208;-80
2021/06/14 09:53:44;;;;;;;3.40;3.13;;;35.40;39.30;;;;;;10510703;28;20228;-80
2021/06/14 09:58:48;;;;;;;3.00;2.80;;;37.10;35.50;;;;;;10509942;28;20204;-80
2021/06/14 10:03:50;;;;;;;4.50;3.75;;;38.80;33.80;;;;;;10508871;28;20251;-80
2021/06/14 10:08:53;;;;;;;3.83;3.42;;;40.10;33.30;;;;;;10495960;28;20228;-80
2021/06/14 10:13:56;;;;;;;3.17;2.88;;;40.70;32.10;;;;;;10498576;28;20228;-80
2021/06/14 10:19:00;;;;;;;2.90;2.63;;;41.30;31.60;;;;;;10511990;28;20199;-80
2021/06/14 10:24:06;;;;;;;2.58;2.47;;;42.00;29.30;;;;;;10511677;28;20714;-80
2021/06/14 10:29:12;;;;;;;4.90;2.87;;;39.60;30.30;;;;;;10507750;28;20212;-79
2021/06/14 10:34:15;;;;;;;5.03;4.60;;;36.50;33.00;;;;;;10500091;28;20307;-79
2021/06/14 10:39:21;;;;;;;3.80;3.50;;;34.10;35.10;;;;;;10487072;28;20200;-79
2021/06/14 10:44:23;;;;;;;3.40;3.10;;;32.20;36.90;;;;;;10489566;28;20216;-79
2021/06/14 10:49:29;;;;;;;3.87;3.47;;;30.90;38.60;;;;;;10490040;28;20208;-78
2021/06/14 10:54:40;;;;;;;5.10;3.17;;;29.60;40.30;;;;;;10534384;22;20219;-79
2021/06/14 10:59:43;;;;;;;3.23;2.80;;;28.70;42.30;;;;;;10542349;28;20204;-78
2021/06/14 11:05:04;;;;;;;2.97;2.77;;;28.10;41.60;;;;;;10536476;28;20228;-78
2021/06/14 11:10:15;;;;;;;2.93;2.73;;;27.60;40.40;;;;;;10535799;28;20196;-78
2021/06/14 11:15:20;;;;;;;3.50;3.13;;;27.10;42.40;;;;;;10538414;28;20279;-78
2021/06/14 11:20:32;;;;;;;3.30;3.00;;;26.80;42.50;;;;;;10538821;28;20777;-77
2021/06/14 11:25:43;;;;;;;3.83;3.43;;;26.50;42.70;;;;;;10514963;28;20600;-77
2021/06/14 11:30:50;;;;;;;3.03;2.67;;;26.30;44.10;;;;;;10499062;28;20236;-77
2021/06/14 11:35:58;;;;;;;3.70;3.20;;;26.20;43.20;;;;;;10501356;28;20219;-77
2021/06/14 11:41:01;;;;;;;4.90;3.87;;;26.10;43.20;;;;;;10483104;28;20235;-77
2021/06/14 11:46:18;;;;;;;2.63;2.43;;;25.90;44.70;;;;;;10502441;28;20256;-77
2021/06/14 11:51:20;;;;;;;3.67;3.13;;;25.80;43.80;;;;;;10502788;28;20593;-77
2021/06/14 11:56:25;;;;;;;3.47;3.10;;;25.70;43.90;;;;;;10503890;28;20617;-78
2021/06/14 12:01:28;;;;;;;2.87;2.67;;;25.70;40.50;;;;;;10503251;28;20253;-78
2021/06/14 12:06:44;;;;;;;2.93;2.73;;;25.60;43.10;;;;;;10508712;28;20210;-79
2021/06/14 12:12:07;;;;;;;3.17;2.97;;;25.50;43.50;;;;;;10512722;28;20671;-79
2021/06/14 12:17:09;;;;;;;2.70;2.50;;;25.50;44.10;;;;;;10511063;28;20717;-79
2021/06/14 12:22:11;;;;;;;2.97;2.77;;;25.60;44.70;;;;;;10495482;28;20253;-78
2021/06/14 12:27:25;;;;;;;3.23;3.03;;;25.60;42.80;;;;;;10512729;28;20196;-79
2021/06/14 12:32:35;;;;;;;4.30;3.00;;;25.70;44.50;;;;;;10493025;28;20227;-79
2021/06/14 12:37:37;;;;;;;3.57;2.97;;;25.70;43.70;;;;;;10515236;28;20191;-79
2021/06/14 12:43:00;;;;;;;3.20;2.90;;;25.80;43.00;;;;;;10508159;28;20311;-79
2021/06/14 12:48:12;;;;;;;3.43;3.20;;;25.80;43.70;;;;;;10492773;28;20279;-79
2021/06/14 12:53:18;;;;;;;2.80;2.60;;;25.80;43.30;;;;;;10511269;28;20224;-78
2021/06/14 12:58:24;;;;;;;3.20;2.90;;;25.80;44.20;;;;;;10517160;28;20196;-79
2021/06/14 13:03:30;;;;;;;2.97;2.77;;;25.80;46.20;;;;;;10516690;28;20216;-79
2021/06/14 13:08:34;;;;;;;3.77;2.70;;;25.70;44.00;;;;;;10516493;28;20246;-79
2021/06/14 13:13:44;;;;;;;3.20;2.87;;;25.70;44.60;;;;;;10511243;28;20224;-79
2021/06/14 13:18:57;;;;;;;4.20;3.17;;;25.70;44.70;;;;;;10516633;28;20663;-79
2021/06/14 13:24:01;;;;;;;2.10;2.00;;;25.70;46.80;;;;;;10508111;28;20281;-79
2021/06/14 13:29:14;;;;;;;2.57;2.23;;;25.70;43.70;;;;;;10513411;28;20196;-78
2021/06/14 13:34:27;;;;;;;3.30;3.00;;;25.80;43.10;;;;;;10520864;28;20224;-79
2021/06/14 13:39:33;;;;;;;2.80;2.60;;;25.70;45.30;;;;;;10505342;28;20618;-79
2021/06/14 13:44:37;;;;;;;2.73;2.57;;;25.70;45.00;;;;;;10513601;28;20673;-79
2021/06/14 13:49:40;;;;;;;2.50;2.30;;;25.70;44.80;;;;;;10504154;28;20201;-78
2021/06/14 13:54:43;;;;;;;3.30;3.00;;;25.80;44.50;;;;;;10508899;28;20302;-79
2021/06/14 13:59:47;;;;;;;2.60;2.40;;;26.00;43.70;;;;;;10506667;28;20649;-79
2021/06/14 14:04:50;;;;;;;2.90;2.70;;;26.00;43.50;;;;;;10508595;28;20667;-79
2021/06/14 14:09:53;;;;;;;3.90;2.53;;;26.00;45.00;;;;;;10506643;28;20568;-79
2021/06/14 14:14:57;;;;;;;3.13;2.93;;;26.00;43.80;;;;;;10518109;28;20231;-79
2021/06/14 14:20:03;;;;;;;2.60;2.40;;;26.10;42.90;;;;;;10540411;28;20636;-79
2021/06/14 14:25:06;;;;;;;3.10;2.80;;;26.10;44.50;;;;;;10536114;28;20269;-79
2021/06/14 14:30:11;;;;;;;2.30;2.20;;;26.10;43.50;;;;;;10539558;28;20200;-79
2021/06/14 14:35:26;;;;;;;2.80;2.70;;;26.00;45.40;;;;;;10530166;28;20308;-79
2021/06/14 14:40:33;;;;;;;3.23;2.83;;;26.00;44.00;;;;;;10515967;28;20835;-79
2021/06/14 14:45:38;;;;;;;2.63;2.50;;;25.90;45.10;;;;;;10497869;28;20213;-79
2021/06/14 14:50:42;;;;;;;2.80;2.60;;;25.80;46.70;;;;;;10496738;28;20311;-79
2021/06/14 14:55:44;;;;;;;3.23;2.90;;;25.80;45.60;;;;;;10531150;28;20227;-79
2021/06/14 15:00:48;;;;;;;2.80;2.70;;;25.80;47.00;;;;;;10546044;28;20283;-79
2021/06/14 15:05:50;;;;;;;2.90;2.57;;;25.80;47.10;;;;;;10537887;28;20247;-78
2021/06/14 15:10:52;;;;;;;2.63;2.40;;;25.80;44.50;;;;;;10539227;28;20192;-78
2021/06/14 15:15:55;;;;;;;2.57;2.37;;;25.80;44.80;;;;;;10537222;28;20494;-78
2021/06/14 15:20:57;;;;;;;2.70;2.60;;;25.80;45.70;;;;;;10534084;28;20204;-78
2021/06/14 15:26:00;;;;;;;2.50;2.40;;;25.80;45.30;;;;;;10493913;28;20250;-78
2021/06/14 15:31:09;;;;;;;2.63;2.50;;;25.90;43.90;;;;;;10495547;28;20197;-78
2021/06/14 15:36:15;;;;;;;3.10;2.90;;;25.90;45.60;;;;;;10495840;28;20224;-78
2021/06/14 15:41:17;;;;;;;4.23;3.00;;;25.90;48.30;;;;;;10495729;28;20189;-79
2021/06/14 15:46:27;;;;;;;2.87;2.47;;;25.80;47.00;;;;;;10495506;28;20300;-79
2021/06/14 15:51:32;;;;;;;2.63;2.43;;;25.80;48.40;;;;;;10497652;28;20229;-78
2021/06/14 15:56:36;;;;;;;3.37;3.07;;;25.80;50.30;;;;;;10537428;28;20211;-78
2021/06/14 16:01:51;;;;;;;2.90;2.80;;;25.80;47.40;;;;;;10518008;28;20265;-78
2021/06/14 16:06:53;;;;;;;3.07;2.80;;;26.00;47.70;;;;;;10490880;28;20229;-78
2021/06/14 16:11:55;;;;;;;2.80;2.60;;;26.00;48.70;;;;;;10538477;28;20564;-78
2021/06/14 16:16:59;;;;;;;4.60;2.47;;;26.00;49.10;;;;;;10530027;28;20229;-78
2021/06/14 16:22:01;;;;;;;2.90;2.57;;;26.00;49.80;;;;;;10529953;28;20307;-78
2021/06/14 16:27:09;;;;;;;5.10;2.90;;;25.90;50.00;;;;;;10493027;28;20208;-78
2021/06/14 16:32:12;;;;;;;3.27;2.97;;;25.80;49.20;;;;;;10493000;28;20308;-78
2021/06/14 16:37:15;;;;;;;3.60;3.30;;;25.80;50.40;;;;;;10527295;28;20256;-78
2021/06/14 16:42:17;;;;;;;3.63;2.97;;;25.80;49.10;;;;;;10518129;28;20234;-78
2021/06/14 16:47:20;;;;;;;2.93;2.70;;;25.80;50.40;;;;;;10536308;28;20206;-78
2021/06/14 16:52:22;;;;;;;3.00;2.80;;;25.80;50.00;;;;;;10533278;28;20255;-77
2021/06/14 16:57:25;;;;;;;2.87;2.53;;;25.80;51.00;;;;;;10541559;28;20208;-77
2021/06/14 17:02:28;;;;;;;3.53;2.90;;;25.80;51.20;;;;;;10545466;28;20216;-78
2021/06/14 17:07:30;;;;;;;3.03;2.60;;;25.80;49.50;;;;;;10544128;28;20220;-78
2021/06/14 17:12:33;;;;;;;4.03;2.60;;;25.70;50.60;;;;;;10545185;28;20215;-78
2021/06/14 17:17:37;;;;;;;2.87;2.67;;;25.70;50.40;;;;;;10545057;28;20208;-78
2021/06/14 17:22:39;;;;;;;2.97;2.70;;;25.70;50.30;;;;;;10543688;28;20688;-77
2021/06/14 17:27:42;;;;;;;2.53;2.37;;;25.70;51.30;;;;;;10544378;28;20208;-78
2021/06/14 17:32:48;;;;;;;3.43;3.23;;;25.60;51.00;;;;;;10544725;28;20223;-78
2021/06/14 17:37:50;;;;;;;3.27;3.07;;;25.60;51.60;;;;;;10543570;28;20558;-78
2021/06/14 17:42:52;;;;;;;3.13;2.80;;;25.50;50.70;;;;;;10530614;28;20223;-78
2021/06/14 17:47:56;;;;;;;3.40;3.20;;;25.50;50.60;;;;;;10546602;28;20208;-78
2021/06/14 17:53:02;;;;;;;3.47;3.27;;;25.50;48.10;;;;;;10542074;28;20269;-78
2021/06/14 17:58:05;;;;;;;3.40;3.10;;;25.50;52.30;;;;;;10542911;28;20257;-78
2021/06/14 18:03:09;;;;;;;3.07;2.87;;;25.40;50.40;;;;;;10502181;28;20217;-78
2021/06/14 18:08:13;;;;;;;2.90;2.70;;;25.30;51.60;;;;;;10482644;28;20228;-78
2021/06/14 18:13:16;;;;;;;4.33;3.93;;;25.30;50.20;;;;;;10500545;28;20311;-78
2021/06/14 18:18:21;;;;;;;3.10;2.80;;;25.30;51.70;;;;;;10499225;28;20228;-78
2021/06/14 18:23:23;;;;;;;3.83;3.53;;;25.20;52.20;;;;;;10512000;28;20225;-78
2021/06/14 18:28:25;;;;;;;3.67;3.47;;;25.10;51.70;;;;;;10542866;28;20210;-78
2021/06/14 18:33:29;;;;;;;3.50;3.20;;;25.00;52.50;;;;;;10535401;28;20224;-78
2021/06/14 18:38:34;;;;;;;7.93;3.43;;;24.90;53.30;;;;;;10542519;28;20230;-78
2021/06/14 18:43:39;;;;;;;3.60;3.30;;;24.80;53.80;;;;;;10540555;28;20223;-77
2021/06/14 18:48:44;;;;;;;3.83;3.50;;;24.80;54.10;;;;;;10513524;28;20208;-77
2021/06/14 18:53:46;;;;;;;3.40;3.10;;;24.80;55.00;;;;;;10521190;28;20257;-78
2021/06/14 18:58:48;;;;;;;5.27;4.77;;;24.70;56.20;;;;;;10537054;28;20222;-78
2021/06/14 19:03:52;;;;;;;4.77;4.47;;;24.70;55.50;;;;;;10532719;28;20654;-77
2021/06/14 19:08:57;;;;;;;3.77;3.47;;;24.60;55.90;;;;;;10537939;28;20582;-77
2021/06/14 19:14:00;;;;;;;3.50;3.30;;;24.50;56.30;;;;;;10535988;28;20228;-78
2021/06/14 19:19:06;;;;;;;3.80;3.50;;;24.30;56.80;;;;;;10535419;28;20221;-77
2021/06/14 19:24:08;;;;;;;3.57;3.20;;;24.10;58.20;;;;;;10532249;28;20220;-77
2021/06/14 19:29:10;;;;;;;4.53;3.40;;;23.90;58.50;;;;;;10541246;28;20204;-78
2021/06/14 19:34:14;;;;;;;4.70;4.20;;;23.80;59.10;;;;;;10537337;28;20251;-77
2021/06/14 19:39:16;;;;;;;6.97;6.37;;;23.70;59.60;;;;;;10536114;28;20204;-76
2021/06/14 19:44:18;;;;;;;4.73;4.30;;;23.50;60.50;;;;;;10537000;28;20216;-77
2021/06/14 19:49:22;;;;;;;4.30;3.90;;;23.40;61.40;;;;;;10535670;28;20233;-77
2021/06/14 19:54:24;;;;;;;5.10;4.20;;;23.30;62.50;;;;;;10535810;28;20224;-77
2021/06/14 19:59:26;;;;;;;3.57;3.37;;;23.20;62.10;;;;;;10526548;28;20197;-77
2021/06/14 20:04:30;;;;;;;3.90;3.50;;;23.10;62.20;;;;;;10500020;28;20270;-77
2021/06/14 20:09:32;;;;;;;6.30;4.17;;;23.00;62.30;;;;;;10535505;28;20279;-77
2021/06/14 20:14:35;;;;;;;4.33;4.03;;;22.90;63.10;;;;;;10534934;28;20243;-77
2021/06/14 20:19:38;;;;;;;5.50;4.20;;;22.80;63.50;;;;;;10529308;28;20254;-77
2021/06/14 20:24:40;;;;;;;4.17;3.70;;;22.70;63.70;;;;;;10513637;28;20273;-77
2021/06/14 20:29:43;;;;;;;3.87;3.43;;;22.60;64.50;;;;;;10535689;28;20196;-76
2021/06/14 20:34:46;;;;;;;4.10;3.70;;;22.60;64.70;;;;;;10540857;28;20255;-77
2021/06/14 20:39:49;;;;;;;4.30;3.90;;;22.40;65.00;;;;;;10550472;28;20200;-77
2021/06/14 20:44:51;;;;;;;3.70;3.40;;;22.40;64.80;;;;;;10544972;28;20254;-77
2021/06/14 20:49:54;;;;;;;3.30;3.10;;;22.30;65.70;;;;;;10543169;28;20804;-77
2021/06/14 20:54:56;;;;;;;3.80;3.50;;;22.20;65.60;;;;;;10537293;28;20219;-77
2021/06/14 20:59:58;;;;;;;4.43;3.60;;;22.20;66.30;;;;;;10541789;28;20211;-77
2021/06/14 21:05:02;;;;;;;5.70;3.77;;;22.10;66.40;;;;;;10540859;28;20299;-77
2021/06/14 21:10:06;;;;;;;3.90;3.53;;;22.00;66.80;;;;;;10550057;28;20200;-77
2021/06/14 21:15:09;;;;;;;3.77;3.47;;;22.00;67.10;;;;;;10510037;28;20734;-76
2021/06/14 21:20:14;;;;;;;4.23;3.60;;;22.00;67.50;;;;;;10490523;28;20211;-78
2021/06/14 21:25:17;;;;;;;4.93;3.83;;;21.90;67.10;;;;;;10542522;28;20281;-77
2021/06/14 21:30:20;;;;;;;4.00;3.70;;;21.80;67.40;;;;;;10531479;28;20200;-77
2021/06/14 21:35:24;;;;;;;3.60;3.30;;;21.80;67.60;;;;;;10518993;28;20304;-78
2021/06/14 21:40:28;;;;;;;4.33;3.80;;;21.70;67.90;;;;;;10545963;28;20199;-77
2021/06/14 21:45:31;;;;;;;3.70;3.30;;;21.70;68.50;;;;;;10544060;28;20216;-77
2021/06/14 21:50:35;;;;;;;3.83;3.50;;;21.60;68.10;;;;;;10523989;28;20242;-77
2021/06/14 21:55:45;;;;;;;3.73;3.40;;;21.60;67.90;;;;;;10541338;28;20672;-77
2021/06/14 22:00:50;;;;;;;3.73;3.20;;;21.50;68.30;;;;;;10542733;28;20199;-77
2021/06/14 22:05:54;;;;;;;7.20;3.27;;;21.40;69.40;;;;;;10542681;28;20227;-77
2021/06/14 22:10:56;;;;;;;3.63;3.33;;;21.40;69.40;;;;;;10543898;28;20288;-77
2021/06/14 22:15:58;;;;;;;5.03;4.07;;;21.30;69.90;;;;;;10544497;28;20219;-77
2021/06/14 22:21:02;;;;;;;4.10;3.70;;;21.20;69.60;;;;;;10544400;28;20286;-77
2021/06/14 22:26:04;;;;;;;3.67;3.47;;;21.20;69.90;;;;;;10543422;28;20192;-78
2021/06/14 22:31:06;;;;;;;4.17;3.87;;;21.10;70.00;;;;;;10542707;28;20203;-76
2021/06/14 22:36:10;;;;;;;5.87;3.90;;;21.00;69.80;;;;;;10512464;28;20244;-77
2021/06/14 22:41:12;;;;;;;4.97;3.93;;;20.90;69.80;;;;;;10519157;28;20208;-77
2021/06/14 22:46:14;;;;;;;4.10;3.80;;;20.80;69.80;;;;;;10524869;28;20180;-78
2021/06/14 22:51:18;;;;;;;3.93;3.70;;;20.70;69.90;;;;;;10524480;28;20815;-78
2021/06/14 22:56:22;;;;;;;4.40;4.00;;;20.70;69.80;;;;;;10449345;22;20230;-80
2021/06/14 23:01:24;;;;;;;3.57;3.37;;;20.60;69.60;;;;;;10423450;28;20551;-78
2021/06/14 23:06:33;;;;;;;4.60;4.07;;;20.50;70.10;;;;;;10425453;28;20205;-79
2021/06/14 23:11:35;;;;;;;4.20;3.90;;;20.50;70.60;;;;;;10420556;28;20657;-78
2021/06/14 23:16:37;;;;;;;3.80;3.50;;;20.40;71.70;;;;;;10426757;28;20225;-80
2021/06/14 23:21:41;;;;;;;4.17;3.77;;;20.40;71.50;;;;;;10425467;28;20213;-79
2021/06/14 23:26:45;;;;;;;3.50;3.30;;;20.40;71.70;;;;;;10405709;28;20218;-79
2021/06/14 23:31:47;;;;;;;4.60;4.03;;;20.40;72.00;;;;;;10423817;28;20198;-80
2021/06/14 23:36:50;;;;;;;4.30;3.90;;;20.40;71.80;;;;;;10426090;28;20249;-79
2021/06/14 23:41:52;;;;;;;4.03;3.73;;;20.40;71.10;;;;;;10447855;28;20208;-79
2021/06/14 23:46:54;;;;;;;4.10;3.70;;;20.40;71.30;;;;;;10455034;28;20716;-78
2021/06/14 23:51:58;;;;;;;3.93;3.63;;;20.30;72.20;;;;;;10455558;28;20599;-78
2021/06/14 23:57:00;;;;;;;5.40;3.80;;;20.30;70.70;;;;;;10463921;28;20240;-79
